sensor_id;sensor_type;location;lat;lon;timestamp;P1;durP1;ratioP1;P2;durP2;ratioP2
34557;SDS011;24708;48.888;8.736;2023-03-29T05:32:29;5.53;;;2.50;;
34557;SDS011;24708;48.888;8.736;2023-03-29T05:34:57;6.50;;;3.00;;
34557;SDS011;24708;48.888;8.736;2023-03-29T05:37:24;4.20;;;3.20;;
34557;SDS011;24708;48.888;8.736;2023-03-29T05:39:52;6.18;;;2.83;;
34557;SDS011;24708;48.888;8.736;2023-03-29T05:42:31;3.88;;;2.55;;
34557;SDS011;24708;48.888;8.736;2023-03-29T05:44:59;8.82;;;2.53;;
34557;SDS011;24708;48.888;8.736;2023-03-29T05:47:26;6.15;;;3.40;;
34557;SDS011;24708;48.888;8.736;2023-03-29T05:49:54;3.58;;;3.17;;
34557;SDS011;24708;48.888;8.736;2023-03-29T05:52:22;4.25;;;2.72;;
34557;SDS011;24708;48.888;8.736;2023-03-29T05:54:50;4.10;;;3.33;;
34557;SDS011;24708;48.888;8.736;2023-03-29T05:57:18;7.25;;;3.60;;
34557;SDS011;24708;48.888;8.736;2023-03-29T05:59:46;6.07;;;3.80;;
34557;SDS011;24708;48.888;8.736;2023-03-29T06:02:14;4.95;;;2.92;;
34557;SDS011;24708;48.888;8.736;2023-03-29T06:04:42;4.45;;;2.80;;
34557;SDS011;24708;48.888;8.736;2023-03-29T06:07:10;3.50;;;2.58;;
34557;SDS011;24708;48.888;8.736;2023-03-29T06:09:38;5.40;;;3.25;;
34557;SDS011;24708;48.888;8.736;2023-03-29T06:12:06;6.82;;;2.83;;
34557;SDS011;24708;48.888;8.736;2023-03-29T06:14:34;4.88;;;3.20;;
34557;SDS011;24708;48.888;8.736;2023-03-29T06:17:03;7.30;;;2.78;;
34557;SDS011;24708;48.888;8.736;2023-03-29T06:19:31;3.25;;;2.95;;
34557;SDS011;24708;48.888;8.736;2023-03-29T06:21:59;4.90;;;2.25;;
34557;SDS011;24708;48.888;8.736;2023-03-29T06:24:27;3.35;;;2.80;;
34557;SDS011;24708;48.888;8.736;2023-03-29T06:26:55;3.67;;;2.65;;
34557;SDS011;24708;48.888;8.736;2023-03-29T06:29:23;3.38;;;2.30;;
34557;SDS011;24708;48.888;8.736;2023-03-29T06:31:52;6.25;;;2.03;;
34557;SDS011;24708;48.888;8.736;2023-03-29T06:34:19;3.90;;;2.17;;
34557;SDS011;24708;48.888;8.736;2023-03-29T06:36:48;2.47;;;2.10;;
34557;SDS011;24708;48.888;8.736;2023-03-29T06:39:16;3.35;;;1.75;;
34557;SDS011;24708;48.888;8.736;2023-03-29T06:41:44;2.67;;;1.73;;
34557;SDS011;24708;48.888;8.736;2023-03-29T06:44:12;3.15;;;1.90;;
34557;SDS011;24708;48.888;8.736;2023-03-29T06:46:40;2.70;;;1.85;;
34557;SDS011;24708;48.888;8.736;2023-03-29T06:49:08;4.15;;;1.92;;
34557;SDS011;24708;48.888;8.736;2023-03-29T06:51:35;1.65;;;1.45;;
34557;SDS011;24708;48.888;8.736;2023-03-29T06:54:03;2.60;;;2.13;;
34557;SDS011;24708;48.888;8.736;2023-03-29T06:56:31;2.72;;;2.13;;
34557;SDS011;24708;48.888;8.736;2023-03-29T06:58:59;2.63;;;1.90;;
34557;SDS011;24708;48.888;8.736;2023-03-29T07:01:27;6.18;;;2.35;;
34557;SDS011;24708;48.888;8.736;2023-03-29T07:03:55;8.80;;;2.00;;
34557;SDS011;24708;48.888;8.736;2023-03-29T07:06:24;2.05;;;1.83;;
34557;SDS011;24708;48.888;8.736;2023-03-29T07:08:52;3.67;;;2.38;;
34557;SDS011;24708;48.888;8.736;2023-03-29T07:11:19;3.00;;;2.20;;
34557;SDS011;24708;48.888;8.736;2023-03-29T07:13:47;2.78;;;1.92;;
34557;SDS011;24708;48.888;8.736;2023-03-29T07:16:14;3.92;;;2.13;;
34557;SDS011;24708;48.888;8.736;2023-03-29T07:18:45;5.22;;;2.67;;
34557;SDS011;24708;48.888;8.736;2023-03-29T07:21:12;8.43;;;3.25;;
34557;SDS011;24708;48.888;8.736;2023-03-29T07:23:41;6.97;;;2.80;;
34557;SDS011;24708;48.888;8.736;2023-03-29T07:26:09;2.65;;;1.98;;
34557;SDS011;24708;48.888;8.736;2023-03-29T07:28:37;7.85;;;2.00;;
34557;SDS011;24708;48.888;8.736;2023-03-29T07:31:06;6.25;;;2.10;;
34557;SDS011;24708;48.888;8.736;2023-03-29T07:33:36;3.35;;;2.15;;
34557;SDS011;24708;48.888;8.736;2023-03-29T07:36:05;2.55;;;1.67;;
34557;SDS011;24708;48.888;8.736;2023-03-29T07:38:33;3.25;;;1.92;;
34557;SDS011;24708;48.888;8.736;2023-03-29T07:41:01;6.97;;;2.17;;
34557;SDS011;24708;48.888;8.736;2023-03-29T07:43:31;3.15;;;1.92;;
34557;SDS011;24708;48.888;8.736;2023-03-29T07:46:03;4.70;;;1.67;;
34557;SDS011;24708;48.888;8.736;2023-03-29T07:48:32;3.03;;;1.80;;
34557;SDS011;24708;48.888;8.736;2023-03-29T07:51:03;2.95;;;1.58;;
34557;SDS011;24708;48.888;8.736;2023-03-29T07:53:33;11.90;;;2.20;;
34557;SDS011;24708;48.888;8.736;2023-03-29T07:56:00;3.97;;;1.45;;
34557;SDS011;24708;48.888;8.736;2023-03-29T07:58:28;2.85;;;1.45;;
34557;SDS011;24708;48.888;8.736;2023-03-29T08:01:01;10.40;;;1.67;;
34557;SDS011;24708;48.888;8.736;2023-03-29T08:03:30;4.18;;;2.22;;
34557;SDS011;24708;48.888;8.736;2023-03-29T08:06:01;5.07;;;2.22;;
34557;SDS011;24708;48.888;8.736;2023-03-29T08:08:29;3.75;;;2.20;;
34557;SDS011;24708;48.888;8.736;2023-03-29T08:10:59;8.50;;;2.25;;
34557;SDS011;24708;48.888;8.736;2023-03-29T08:13:29;8.73;;;2.92;;
34557;SDS011;24708;48.888;8.736;2023-03-29T08:15:58;5.82;;;3.25;;
34557;SDS011;24708;48.888;8.736;2023-03-29T08:18:26;4.55;;;3.00;;
34557;SDS011;24708;48.888;8.736;2023-03-29T08:21:00;4.78;;;1.80;;
34557;SDS011;24708;48.888;8.736;2023-03-29T08:23:28;4.10;;;2.17;;
34557;SDS011;24708;48.888;8.736;2023-03-29T08:25:56;5.63;;;2.28;;
34557;SDS011;24708;48.888;8.736;2023-03-29T08:28:25;5.93;;;1.77;;
34557;SDS011;24708;48.888;8.736;2023-03-29T08:30:53;6.63;;;2.10;;
34557;SDS011;24708;48.888;8.736;2023-03-29T08:33:23;5.28;;;2.33;;
34557;SDS011;24708;48.888;8.736;2023-03-29T08:35:55;2.78;;;1.70;;
34557;SDS011;24708;48.888;8.736;2023-03-29T08:38:25;4.25;;;1.70;;
34557;SDS011;24708;48.888;8.736;2023-03-29T08:40:53;4.85;;;1.83;;
34557;SDS011;24708;48.888;8.736;2023-03-29T08:43:35;2.33;;;1.60;;
34557;SDS011;24708;48.888;8.736;2023-03-29T08:46:19;3.20;;;1.67;;
34557;SDS011;24708;48.888;8.736;2023-03-29T08:49:07;3.63;;;1.75;;
34557;SDS011;24708;48.888;8.736;2023-03-29T08:51:44;2.47;;;1.50;;
34557;SDS011;24708;48.888;8.736;2023-03-29T08:54:17;2.30;;;1.38;;
34557;SDS011;24708;48.888;8.736;2023-03-29T08:56:51;2.95;;;1.02;;
34557;SDS011;24708;48.888;8.736;2023-03-29T08:59:27;4.70;;;1.60;;
34557;SDS011;24708;48.888;8.736;2023-03-29T09:01:57;3.30;;;1.52;;
34557;SDS011;24708;48.888;8.736;2023-03-29T09:04:32;7.47;;;3.55;;
34557;SDS011;24708;48.888;8.736;2023-03-29T09:07:02;7.78;;;2.35;;
34557;SDS011;24708;48.888;8.736;2023-03-29T09:09:32;1.58;;;1.10;;
34557;SDS011;24708;48.888;8.736;2023-03-29T09:15:14;7.38;;;1.92;;
34557;SDS011;24708;48.888;8.736;2023-03-29T09:18:03;6.50;;;2.47;;
34557;SDS011;24708;48.888;8.736;2023-03-29T09:20:54;2.45;;;1.20;;
34557;SDS011;24708;48.888;8.736;2023-03-29T09:26:21;3.15;;;1.15;;
34557;SDS011;24708;48.888;8.736;2023-03-29T09:31:31;6.07;;;1.65;;
34557;SDS011;24708;48.888;8.736;2023-03-29T09:39:24;2.00;;;1.48;;
34557;SDS011;24708;48.888;8.736;2023-03-29T09:42:04;4.20;;;1.40;;
34557;SDS011;24708;48.888;8.736;2023-03-29T09:44:43;3.00;;;1.52;;
34557;SDS011;24708;48.888;8.736;2023-03-29T09:50:36;1.75;;;0.90;;
34557;SDS011;24708;48.888;8.736;2023-03-29T09:52:58;3.78;;;1.45;;
34557;SDS011;24708;48.888;8.736;2023-03-29T09:55:27;1.95;;;1.33;;
34557;SDS011;24708;48.888;8.736;2023-03-29T09:58:06;5.47;;;1.67;;
34557;SDS011;24708;48.888;8.736;2023-03-29T10:00:40;3.30;;;1.23;;
34557;SDS011;24708;48.888;8.736;2023-03-29T10:05:51;8.48;;;1.20;;
34557;SDS011;24708;48.888;8.736;2023-03-29T10:08:34;2.13;;;0.85;;
34557;SDS011;24708;48.888;8.736;2023-03-29T10:14:02;2.95;;;1.23;;
34557;SDS011;24708;48.888;8.736;2023-03-29T10:16:43;9.90;;;1.27;;
34557;SDS011;24708;48.888;8.736;2023-03-29T10:19:20;2.25;;;1.50;;
34557;SDS011;24708;48.888;8.736;2023-03-29T10:21:53;2.53;;;1.23;;
34557;SDS011;24708;48.888;8.736;2023-03-29T10:24:27;4.93;;;1.30;;
34557;SDS011;24708;48.888;8.736;2023-03-29T10:26:59;4.93;;;1.98;;
34557;SDS011;24708;48.888;8.736;2023-03-29T10:29:33;2.22;;;1.40;;
34557;SDS011;24708;48.888;8.736;2023-03-29T10:32:13;4.97;;;1.23;;
34557;SDS011;24708;48.888;8.736;2023-03-29T10:34:44;8.20;;;1.42;;
34557;SDS011;24708;48.888;8.736;2023-03-29T10:37:15;7.43;;;1.60;;
34557;SDS011;24708;48.888;8.736;2023-03-29T10:39:46;2.90;;;0.97;;
34557;SDS011;24708;48.888;8.736;2023-03-29T10:42:15;6.28;;;1.25;;
34557;SDS011;24708;48.888;8.736;2023-03-29T10:44:56;2.25;;;1.45;;
34557;SDS011;24708;48.888;8.736;2023-03-29T10:47:26;7.65;;;1.63;;
34557;SDS011;24708;48.888;8.736;2023-03-29T10:50:03;2.15;;;0.95;;
34557;SDS011;24708;48.888;8.736;2023-03-29T10:52:33;6.00;;;1.35;;
34557;SDS011;24708;48.888;8.736;2023-03-29T10:55:01;7.30;;;1.67;;
34557;SDS011;24708;48.888;8.736;2023-03-29T11:00:12;3.78;;;1.60;;
34557;SDS011;24708;48.888;8.736;2023-03-29T11:03:26;5.68;;;1.60;;
34557;SDS011;24708;48.888;8.736;2023-03-29T11:05:58;3.15;;;1.23;;
34557;SDS011;24708;48.888;8.736;2023-03-29T11:08:40;4.47;;;0.90;;
34557;SDS011;24708;48.888;8.736;2023-03-29T11:11:31;4.78;;;0.90;;
34557;SDS011;24708;48.888;8.736;2023-03-29T11:17:38;2.03;;;0.82;;
34557;SDS011;24708;48.888;8.736;2023-03-29T11:29:11;5.97;;;1.73;;
34557;SDS011;24708;48.888;8.736;2023-03-29T11:31:51;1.52;;;0.90;;
34557;SDS011;24708;48.888;8.736;2023-03-29T11:34:29;4.57;;;1.08;;
34557;SDS011;24708;48.888;8.736;2023-03-29T11:37:11;2.60;;;0.95;;
34557;SDS011;24708;48.888;8.736;2023-03-29T11:43:27;4.25;;;1.05;;
34557;SDS011;24708;48.888;8.736;2023-03-29T11:48:48;3.25;;;1.30;;
34557;SDS011;24708;48.888;8.736;2023-03-29T11:51:27;1.60;;;1.10;;
34557;SDS011;24708;48.888;8.736;2023-03-29T11:54:11;6.93;;;1.00;;
34557;SDS011;24708;48.888;8.736;2023-03-29T11:56:51;3.33;;;1.00;;
34557;SDS011;24708;48.888;8.736;2023-03-29T11:59:31;7.05;;;1.13;;
34557;SDS011;24708;48.888;8.736;2023-03-29T12:05:09;1.95;;;0.88;;
34557;SDS011;24708;48.888;8.736;2023-03-29T12:10:43;2.17;;;0.90;;
34557;SDS011;24708;48.888;8.736;2023-03-29T12:13:29;5.82;;;0.80;;
34557;SDS011;24708;48.888;8.736;2023-03-29T12:18:53;1.90;;;0.95;;
34557;SDS011;24708;48.888;8.736;2023-03-29T12:21:25;0.85;;;0.55;;
34557;SDS011;24708;48.888;8.736;2023-03-29T12:23:56;1.95;;;0.80;;
34557;SDS011;24708;48.888;8.736;2023-03-29T12:29:26;1.63;;;0.75;;
34557;SDS011;24708;48.888;8.736;2023-03-29T12:35:21;1.83;;;1.08;;
34557;SDS011;24708;48.888;8.736;2023-03-29T12:38:05;5.47;;;1.73;;
34557;SDS011;24708;48.888;8.736;2023-03-29T12:40:45;4.25;;;0.82;;
34557;SDS011;24708;48.888;8.736;2023-03-29T12:46:10;1.80;;;0.65;;
34557;SDS011;24708;48.888;8.736;2023-03-29T12:48:42;2.53;;;0.90;;
34557;SDS011;24708;48.888;8.736;2023-03-29T12:51:17;1.77;;;0.90;;
34557;SDS011;24708;48.888;8.736;2023-03-29T12:53:48;3.55;;;0.90;;
34557;SDS011;24708;48.888;8.736;2023-03-29T12:56:33;1.25;;;0.90;;
34557;SDS011;24708;48.888;8.736;2023-03-29T13:02:00;2.25;;;1.10;;
34557;SDS011;24708;48.888;8.736;2023-03-29T13:04:47;3.35;;;1.00;;
34557;SDS011;24708;48.888;8.736;2023-03-29T13:09:55;2.05;;;1.15;;
34557;SDS011;24708;48.888;8.736;2023-03-29T13:18:06;2.17;;;1.10;;
34557;SDS011;24708;48.888;8.736;2023-03-29T13:21:15;2.13;;;0.82;;
34557;SDS011;24708;48.888;8.736;2023-03-29T13:29:34;5.85;;;1.05;;
34557;SDS011;24708;48.888;8.736;2023-03-29T13:35:27;6.15;;;1.05;;
34557;SDS011;24708;48.888;8.736;2023-03-29T13:38:26;2.17;;;1.30;;
34557;SDS011;24708;48.888;8.736;2023-03-29T13:46:24;3.38;;;1.63;;
34557;SDS011;24708;48.888;8.736;2023-03-29T13:49:04;4.55;;;1.25;;
34557;SDS011;24708;48.888;8.736;2023-03-29T13:57:11;2.20;;;1.50;;
34557;SDS011;24708;48.888;8.736;2023-03-29T13:59:58;5.70;;;2.25;;
34557;SDS011;24708;48.888;8.736;2023-03-29T14:02:30;4.57;;;1.60;;
34557;SDS011;24708;48.888;8.736;2023-03-29T14:05:03;6.65;;;1.75;;
34557;SDS011;24708;48.888;8.736;2023-03-29T14:07:36;4.60;;;1.42;;
34557;SDS011;24708;48.888;8.736;2023-03-29T14:10:06;4.35;;;1.60;;
34557;SDS011;24708;48.888;8.736;2023-03-29T14:12:37;2.92;;;1.30;;
34557;SDS011;24708;48.888;8.736;2023-03-29T14:15:17;3.22;;;1.25;;
34557;SDS011;24708;48.888;8.736;2023-03-29T14:17:56;5.55;;;1.45;;
34557;SDS011;24708;48.888;8.736;2023-03-29T14:20:26;3.83;;;1.35;;
34557;SDS011;24708;48.888;8.736;2023-03-29T14:22:54;4.15;;;1.33;;
34557;SDS011;24708;48.888;8.736;2023-03-29T14:25:22;6.70;;;1.77;;
34557;SDS011;24708;48.888;8.736;2023-03-29T14:27:51;4.80;;;1.20;;
34557;SDS011;24708;48.888;8.736;2023-03-29T14:30:22;3.13;;;1.27;;
34557;SDS011;24708;48.888;8.736;2023-03-29T14:32:53;5.70;;;1.40;;
34557;SDS011;24708;48.888;8.736;2023-03-29T14:35:26;3.55;;;1.50;;
34557;SDS011;24708;48.888;8.736;2023-03-29T14:37:56;2.28;;;1.40;;
34557;SDS011;24708;48.888;8.736;2023-03-29T14:40:25;13.07;;;1.63;;
34557;SDS011;24708;48.888;8.736;2023-03-29T14:42:53;4.93;;;1.70;;
34557;SDS011;24708;48.888;8.736;2023-03-29T14:45:21;11.57;;;1.60;;
34557;SDS011;24708;48.888;8.736;2023-03-29T14:47:49;9.20;;;1.48;;
34557;SDS011;24708;48.888;8.736;2023-03-29T14:50:18;4.53;;;0.85;;
34557;SDS011;24708;48.888;8.736;2023-03-29T14:52:51;8.00;;;1.45;;
34557;SDS011;24708;48.888;8.736;2023-03-29T14:55:20;2.72;;;0.82;;
34557;SDS011;24708;48.888;8.736;2023-03-29T14:57:50;4.25;;;1.70;;
34557;SDS011;24708;48.888;8.736;2023-03-29T15:02:49;4.57;;;1.52;;
34557;SDS011;24708;48.888;8.736;2023-03-29T15:08:02;2.60;;;1.10;;
34557;SDS011;24708;48.888;8.736;2023-03-29T15:10:33;2.47;;;1.48;;
34557;SDS011;24708;48.888;8.736;2023-03-29T15:13:03;5.85;;;1.83;;
34557;SDS011;24708;48.888;8.736;2023-03-29T15:15:33;4.32;;;1.55;;
34557;SDS011;24708;48.888;8.736;2023-03-29T15:18:04;2.33;;;1.30;;
34557;SDS011;24708;48.888;8.736;2023-03-29T15:20:35;7.03;;;1.45;;
34557;SDS011;24708;48.888;8.736;2023-03-29T15:23:08;6.50;;;1.50;;
34557;SDS011;24708;48.888;8.736;2023-03-29T15:25:46;3.25;;;1.35;;
34557;SDS011;24708;48.888;8.736;2023-03-29T15:30:59;5.55;;;1.42;;
34557;SDS011;24708;48.888;8.736;2023-03-29T15:33:32;2.08;;;0.90;;
34557;SDS011;24708;48.888;8.736;2023-03-29T15:36:02;2.38;;;1.00;;
34557;SDS011;24708;48.888;8.736;2023-03-29T15:38:32;4.40;;;1.13;;
34557;SDS011;24708;48.888;8.736;2023-03-29T15:41:09;6.32;;;1.08;;
34557;SDS011;24708;48.888;8.736;2023-03-29T15:43:39;6.07;;;1.65;;
34557;SDS011;24708;48.888;8.736;2023-03-29T15:46:07;4.57;;;1.55;;
34557;SDS011;24708;48.888;8.736;2023-03-29T15:48:38;6.05;;;1.30;;
34557;SDS011;24708;48.888;8.736;2023-03-29T15:51:06;1.88;;;1.15;;
34557;SDS011;24708;48.888;8.736;2023-03-29T15:53:34;7.65;;;1.40;;
34557;SDS011;24708;48.888;8.736;2023-03-29T15:56:01;6.85;;;1.30;;
34557;SDS011;24708;48.888;8.736;2023-03-29T15:58:33;3.78;;;1.55;;
